createdAt,value
2022-09-17T00:01:24.501Z,88.85
2022-09-17T00:03:53.656Z,87.64
2022-09-17T00:06:23.134Z,86.06
2022-09-17T00:08:51.272Z,85.01
2022-09-17T00:11:22.457Z,83.11
2022-09-17T00:13:51.081Z,83.38
2022-09-17T00:16:32.984Z,82.52
2022-09-17T00:19:01.168Z,82.12
2022-09-17T00:21:29.025Z,82.99
2022-09-17T00:24:01.307Z,83.51
2022-09-17T00:26:29.289Z,82.49
2022-09-17T00:28:57.589Z,83.69
2022-09-17T00:31:25.639Z,83.38
2022-09-17T00:33:53.457Z,83.54
2022-09-17T00:36:21.738Z,83.58
2022-09-17T00:38:59.635Z,83.04
2022-09-17T00:41:29.717Z,83.16
2022-09-17T00:43:59.037Z,82.76
2022-09-17T00:46:47.831Z,82.33
2022-09-17T00:49:18.165Z,82.62
2022-09-17T00:51:50.784Z,83.18
2022-09-17T00:54:18.475Z,83.41
2022-09-17T00:56:46.183Z,83.06
2022-09-17T00:59:14.090Z,82.60
2022-09-17T01:01:41.878Z,81.78
2022-09-17T01:04:20.121Z,81.97
2022-09-17T01:07:10.089Z,80.20
2022-09-17T01:09:58.281Z,79.75
2022-09-17T01:13:14.082Z,79.74
2022-09-17T01:15:56.259Z,79.14
2022-09-17T01:18:54.715Z,79.95
2022-09-17T01:21:43.903Z,81.28
2022-09-17T01:24:30.265Z,80.49
2022-09-17T01:27:45.551Z,80.32
2022-09-17T01:30:22.918Z,80.89
2022-09-17T01:32:57.791Z,78.94
2022-09-17T01:35:33.763Z,79.72
2022-09-17T01:38:25.731Z,78.49
2022-09-17T01:41:31.447Z,78.87
2022-09-17T01:44:32.525Z,78.61
2022-09-17T01:47:22.896Z,78.76
2022-09-17T01:49:52.776Z,79.89
2022-09-17T01:52:20.479Z,80.22
2022-09-17T01:54:50.338Z,80.54
2022-09-17T01:57:34.538Z,80.46
2022-09-17T02:00:10.608Z,79.69
2022-09-17T02:02:40.108Z,80.49
2022-09-17T02:05:10.042Z,80.56
2022-09-17T02:07:42.011Z,79.77
2022-09-17T02:10:13.784Z,79.43
2022-09-17T02:12:52.191Z,79.30
2022-09-17T02:15:22.705Z,77.70
2022-09-17T02:18:00.202Z,78.56
2022-09-17T02:20:43.874Z,77.80
2022-09-17T02:23:17.926Z,78.34
2022-09-17T02:25:50.269Z,79.30
2022-09-17T02:28:47.073Z,78.83
2022-09-17T02:31:15.004Z,79.41
2022-09-17T02:33:43.259Z,79.20
2022-09-17T02:36:10.973Z,78.67
2022-09-17T02:38:39.649Z,78.86
2022-09-17T02:41:19.902Z,78.07
2022-09-17T02:43:53.799Z,77.61
2022-09-17T02:46:31.402Z,77.08
2022-09-17T02:49:28.367Z,76.60
2022-09-17T02:52:20.380Z,76.70
2022-09-17T02:55:22.934Z,75.11
2022-09-17T02:57:57.558Z,76.18
2022-09-17T03:00:30.429Z,75.75
2022-09-17T03:03:32.025Z,76.25
2022-09-17T03:05:59.982Z,76.10
2022-09-17T03:08:32.081Z,76.63
2022-09-17T03:10:59.857Z,77.62
2022-09-17T03:13:27.682Z,78.22
2022-09-17T03:15:55.434Z,78.68
2022-09-17T03:18:23.258Z,78.43
2022-09-17T03:20:51.648Z,79.45
2022-09-17T03:23:19.757Z,78.33
2022-09-17T03:25:48.057Z,79.29
2022-09-17T03:28:15.744Z,80.41
2022-09-17T03:30:45.404Z,79.88
2022-09-17T03:33:13.617Z,80.62
2022-09-17T03:35:45.134Z,80.02
2022-09-17T03:38:16.129Z,79.29
2022-09-17T03:40:44.006Z,79.46
2022-09-17T03:43:11.812Z,79.79
2022-09-17T03:45:39.732Z,80.39
2022-09-17T03:48:07.489Z,80.12
2022-09-17T03:50:35.291Z,80.72
2022-09-17T03:53:03.049Z,79.70
2022-09-17T03:55:31.208Z,80.01
2022-09-17T03:57:59.456Z,80.36
2022-09-17T04:00:27.567Z,79.79
2022-09-17T04:02:58.436Z,80.17
2022-09-17T04:05:29.808Z,80.72
2022-09-17T04:07:57.930Z,80.43
2022-09-17T04:10:27.377Z,81.25
2022-09-17T04:12:55.862Z,80.94
2022-09-17T04:15:23.529Z,81.44
2022-09-17T04:18:05.247Z,81.28
2022-09-17T04:20:34.012Z,81.68
2022-09-17T04:23:01.791Z,82.30
2022-09-17T04:25:29.508Z,80.88
2022-09-17T04:27:57.205Z,80.58
2022-09-17T04:30:24.892Z,81.35
2022-09-17T04:32:52.678Z,80.87
2022-09-17T04:35:20.489Z,80.62
2022-09-17T04:37:58.170Z,81.01
2022-09-17T04:40:26.696Z,81.06
2022-09-17T04:42:58.105Z,80.67
2022-09-17T04:45:25.856Z,80.33
2022-09-17T04:47:53.584Z,80.03
2022-09-17T04:50:21.560Z,79.06
2022-09-17T04:52:50.714Z,78.45
2022-09-17T04:55:18.518Z,78.70
2022-09-17T04:57:50.005Z,78.33
2022-09-17T05:00:18.770Z,78.03
2022-09-17T05:02:48.758Z,78.29
2022-09-17T05:05:16.854Z,79.20
2022-09-17T05:07:45.176Z,79.13
2022-09-17T05:10:13.436Z,79.86
2022-09-17T05:12:41.437Z,79.34
2022-09-17T05:15:09.349Z,79.20
2022-09-17T05:17:37.075Z,79.95
2022-09-17T05:20:05.039Z,81.14
2022-09-17T05:22:32.848Z,81.58
2022-09-17T05:25:03.553Z,82.00
2022-09-17T05:27:31.286Z,82.55
2022-09-17T05:29:59.116Z,82.75
2022-09-17T05:32:26.842Z,83.15
2022-09-17T05:34:54.812Z,82.99
2022-09-17T05:37:22.501Z,83.06
2022-09-17T05:39:50.291Z,83.86
2022-09-17T05:42:18.034Z,83.62
2022-09-17T05:44:45.736Z,84.12
2022-09-17T05:47:13.467Z,83.21
2022-09-17T05:49:41.175Z,83.29
2022-09-17T05:52:09.022Z,83.61
2022-09-17T05:54:36.735Z,83.02
2022-09-17T05:57:04.456Z,83.10
2022-09-17T05:59:32.833Z,82.11
2022-09-17T06:02:00.905Z,81.28
2022-09-17T06:04:32.691Z,79.59
2022-09-17T06:07:04.832Z,80.18
2022-09-17T06:09:32.643Z,80.07
2022-09-17T06:12:00.325Z,80.00
2022-09-17T06:14:28.051Z,80.93
2022-09-17T06:16:57.104Z,81.33
2022-09-17T06:19:24.878Z,79.74
2022-09-17T06:21:52.922Z,79.95
2022-09-17T06:24:20.648Z,80.42
2022-09-17T06:26:48.398Z,80.08
2022-09-17T06:29:16.553Z,80.91
2022-09-17T06:31:45.824Z,81.57
2022-09-17T06:34:13.597Z,81.82
2022-09-17T06:36:41.319Z,83.16
2022-09-17T06:39:09.222Z,85.24
2022-09-17T06:41:38.376Z,84.91
2022-09-17T06:44:06.227Z,83.47
2022-09-17T06:46:34.381Z,85.92
2022-09-17T06:49:02.172Z,85.05
2022-09-17T06:51:31.225Z,85.07
2022-09-17T06:53:58.982Z,84.77
2022-09-17T06:56:26.752Z,86.25
2022-09-17T06:58:55.195Z,86.86
2022-09-17T07:01:23.226Z,86.98
2022-09-17T07:03:51.601Z,86.94
2022-09-17T07:06:19.373Z,86.20
2022-09-17T07:08:48.274Z,85.71
2022-09-17T07:11:17.155Z,86.16
2022-09-17T07:13:44.850Z,87.01
2022-09-17T07:16:14.185Z,87.03
2022-09-17T07:18:41.958Z,88.55
2022-09-17T07:21:11.053Z,88.93
2022-09-17T07:23:39.094Z,88.96
2022-09-17T07:26:13.612Z,87.11
2022-09-17T07:28:41.756Z,89.00
2022-09-17T07:31:15.260Z,87.44
2022-09-17T07:33:44.095Z,85.60
2022-09-17T07:36:13.132Z,88.25
2022-09-17T07:38:41.013Z,86.30
2022-09-17T07:41:13.720Z,86.91
2022-09-17T07:43:41.711Z,85.31
2022-09-17T07:46:10.207Z,79.40
2022-09-17T07:48:37.976Z,81.28
2022-09-17T07:51:05.876Z,83.55
2022-09-17T07:53:34.164Z,84.68
2022-09-17T07:56:02.244Z,82.98
2022-09-17T07:58:31.854Z,82.02
2022-09-17T08:01:09.813Z,80.40
2022-09-17T08:03:38.065Z,74.89
2022-09-17T08:06:10.550Z,75.64
2022-09-17T08:08:38.481Z,75.79
2022-09-17T08:11:32.469Z,74.72
2022-09-17T08:14:05.391Z,75.80
2022-09-17T08:16:33.337Z,73.39
2022-09-17T08:19:01.099Z,72.54
2022-09-17T08:21:29.067Z,69.70
2022-09-17T08:23:56.919Z,69.87
2022-09-17T08:26:26.095Z,68.98
2022-09-17T08:28:57.764Z,67.72
2022-09-17T08:31:29.505Z,69.26
2022-09-17T08:33:57.403Z,67.25
2022-09-17T08:36:29.300Z,70.10
2022-09-17T08:38:57.247Z,68.35
2022-09-17T08:41:35.455Z,67.28
2022-09-17T08:44:09.705Z,64.23
2022-09-17T08:46:49.890Z,63.98
2022-09-17T08:49:49.823Z,65.89
2022-09-17T08:52:35.994Z,61.99
2022-09-17T08:55:24.910Z,63.30
2022-09-17T08:58:11.662Z,63.93
2022-09-17T09:00:44.544Z,64.97
2022-09-17T09:03:38.504Z,64.08
2022-09-17T09:06:10.733Z,64.66
2022-09-17T09:08:48.417Z,62.22
2022-09-17T09:11:18.335Z,60.09
2022-09-17T09:13:48.178Z,60.22
2022-09-17T09:16:27.341Z,60.64
2022-09-17T09:19:08.318Z,58.06
2022-09-17T09:21:55.877Z,55.52
2022-09-17T09:24:27.614Z,56.48
2022-09-17T09:27:02.435Z,57.56
2022-09-17T09:29:47.705Z,55.43
2022-09-17T09:32:18.480Z,54.28
2022-09-17T09:34:47.027Z,54.97
2022-09-17T09:37:32.333Z,56.99
2022-09-17T09:40:14.372Z,57.49
2022-09-17T09:42:42.403Z,56.83
2022-09-17T09:45:49.956Z,58.50
2022-09-17T09:48:32.817Z,58.87
2022-09-17T09:51:12.468Z,58.83
2022-09-17T09:54:09.066Z,56.53
2022-09-17T09:56:40.151Z,59.13
2022-09-17T09:59:09.737Z,57.95
2022-09-17T10:01:40.050Z,56.44
2022-09-17T10:04:26.033Z,56.51
2022-09-17T10:06:55.271Z,56.32
2022-09-17T10:09:23.640Z,57.39
2022-09-17T10:12:01.283Z,58.25
2022-09-17T10:14:30.833Z,56.59
2022-09-17T10:17:20.639Z,58.47
2022-09-17T10:20:11.799Z,56.75
2022-09-17T10:22:49.061Z,57.59
2022-09-17T10:25:23.492Z,56.28
2022-09-17T10:27:51.313Z,56.73
2022-09-17T10:30:19.531Z,58.78
2022-09-17T10:33:15.942Z,59.72
2022-09-17T10:35:48.772Z,60.93
2022-09-17T10:38:36.095Z,61.34
2022-09-17T10:41:26.741Z,61.55
2022-09-17T10:43:54.562Z,60.85
2022-09-17T10:46:30.314Z,61.78
2022-09-17T10:49:24.181Z,61.29
2022-09-17T10:51:51.858Z,62.88
2022-09-17T10:54:19.420Z,62.88
2022-09-17T10:56:50.983Z,62.35
2022-09-17T10:59:41.669Z,62.27
2022-09-17T11:02:30.952Z,61.25
2022-09-17T11:05:36.315Z,58.85
2022-09-17T11:08:12.312Z,60.67
2022-09-17T11:10:46.505Z,61.28
2022-09-17T11:13:39.117Z,62.59
2022-09-17T11:16:45.199Z,63.39
2022-09-17T11:19:37.813Z,62.76
2022-09-17T11:22:18.517Z,67.73
2022-09-17T11:24:50.033Z,70.61
2022-09-17T11:27:24.451Z,72.63
2022-09-17T11:30:01.182Z,76.14
2022-09-17T11:32:41.936Z,80.09
2022-09-17T11:35:22.537Z,78.96
2022-09-17T11:38:06.326Z,80.03
2022-09-17T11:40:37.146Z,84.46
2022-09-17T11:43:10.049Z,84.04
2022-09-17T11:45:42.928Z,85.57
2022-09-17T11:48:17.123Z,85.62
2022-09-17T11:51:15.897Z,85.78
2022-09-17T11:53:54.256Z,88.11
2022-09-17T11:56:28.767Z,88.33
2022-09-17T11:59:21.281Z,87.96
2022-09-17T12:02:01.164Z,87.70
2022-09-17T12:04:46.071Z,89.20
2022-09-17T12:07:24.369Z,89.30
2022-09-17T12:10:05.059Z,86.22
2022-09-17T12:12:48.990Z,86.10
2022-09-17T12:15:28.169Z,83.23
2022-09-17T12:18:30.493Z,86.63
2022-09-17T12:20:53.927Z,85.74
2022-09-17T12:23:33.006Z,87.24
2022-09-17T12:26:34.554Z,87.18
2022-09-17T12:29:13.555Z,86.77
2022-09-17T12:31:56.009Z,86.80
2022-09-17T12:34:33.371Z,87.92
2022-09-17T12:37:28.378Z,84.08
2022-09-17T12:40:27.199Z,83.31
2022-09-17T12:43:11.012Z,78.35
2022-09-17T12:45:50.890Z,81.20
2022-09-17T12:49:04.217Z,76.22
2022-09-17T12:51:51.028Z,75.32
2022-09-17T12:54:30.809Z,75.47
2022-09-17T12:57:04.581Z,71.44
2022-09-17T12:59:34.188Z,66.94
2022-09-17T13:02:05.882Z,70.60
2022-09-17T13:05:00.648Z,69.19
2022-09-17T13:07:32.319Z,67.94
2022-09-17T13:10:24.558Z,65.98
2022-09-17T13:12:59.398Z,66.36
2022-09-17T13:15:37.101Z,64.44
2022-09-17T13:18:26.620Z,64.42
2022-09-17T13:21:35.575Z,64.82
2022-09-17T13:24:03.324Z,68.31
2022-09-17T13:26:36.416Z,70.98
2022-09-17T13:29:05.669Z,72.35
2022-09-17T13:34:21.427Z,72.12
2022-09-17T13:37:21.504Z,75.63
2022-09-17T13:39:52.785Z,70.35
2022-09-17T13:42:33.254Z,68.29
2022-09-17T13:45:08.769Z,73.97
2022-09-17T13:47:40.239Z,72.90
2022-09-17T13:50:09.962Z,74.62
2022-09-17T13:52:48.088Z,75.42
2022-09-17T13:55:36.433Z,72.48
2022-09-17T13:58:05.493Z,75.56
2022-09-17T14:00:57.337Z,76.45
2022-09-17T14:03:38.796Z,76.82
2022-09-17T14:06:06.387Z,83.62
2022-09-17T14:08:46.299Z,81.66
2022-09-17T14:11:33.498Z,81.61
2022-09-17T14:14:04.178Z,84.53
2022-09-17T14:16:43.434Z,83.82
2022-09-17T14:19:17.379Z,88.29
2022-09-17T14:22:03.112Z,90.96
2022-09-17T14:24:36.217Z,87.78
2022-09-17T14:27:21.172Z,79.35
2022-09-17T14:30:13.596Z,79.12
2022-09-17T14:33:02.346Z,75.76
2022-09-17T14:35:31.227Z,73.51
2022-09-17T14:38:24.061Z,75.46
2022-09-17T14:41:13.006Z,72.87
2022-09-17T14:44:03.572Z,72.80
2022-09-17T14:46:58.314Z,77.00
2022-09-17T14:49:29.942Z,75.20
2022-09-17T14:51:58.514Z,75.81
2022-09-17T14:57:29.137Z,83.11
2022-09-17T14:59:57.818Z,75.43
2022-09-17T15:02:46.933Z,71.98
2022-09-17T15:05:19.725Z,71.38
2022-09-17T15:07:47.595Z,76.84
2022-09-17T15:10:22.841Z,79.33
2022-09-17T15:12:50.801Z,77.91
2022-09-17T15:15:23.255Z,75.74
2022-09-17T15:17:51.296Z,73.98
2022-09-17T15:23:20.445Z,70.43
2022-09-17T15:26:30.542Z,71.00
2022-09-17T15:28:58.507Z,72.90
2022-09-17T15:31:26.333Z,73.38
2022-09-17T15:33:54.091Z,75.87
2022-09-17T15:36:25.960Z,71.35
2022-09-17T15:38:53.862Z,69.74
2022-09-17T15:41:35.865Z,73.82
2022-09-17T15:44:30.903Z,71.07
2022-09-17T15:53:11.870Z,68.89
2022-09-17T15:55:42.607Z,67.97
2022-09-17T15:58:26.327Z,70.38
2022-09-17T16:01:20.900Z,69.95
2022-09-17T16:04:06.014Z,68.95
2022-09-17T16:06:34.335Z,68.88
2022-09-17T16:09:02.399Z,69.16
2022-09-17T16:11:33.459Z,70.19
2022-09-17T16:14:01.915Z,68.50
2022-09-17T16:16:38.148Z,69.77
2022-09-17T16:19:07.424Z,70.60
2022-09-17T16:21:35.199Z,67.75
2022-09-17T16:24:03.204Z,68.90
2022-09-17T16:26:32.359Z,69.50
2022-09-17T16:29:05.466Z,69.43
2022-09-17T16:31:33.316Z,69.53
2022-09-17T16:34:01.803Z,68.90
2022-09-17T16:36:32.160Z,70.29
2022-09-17T16:39:00.322Z,70.76
2022-09-17T16:41:28.100Z,71.79
2022-09-17T16:43:55.829Z,71.31
2022-09-17T16:46:23.559Z,72.62
2022-09-17T16:48:51.688Z,73.05
2022-09-17T16:51:19.523Z,73.89
2022-09-17T16:53:47.272Z,72.80
2022-09-17T16:56:15.786Z,73.58
2022-09-17T16:58:43.606Z,72.55
2022-09-17T17:01:17.006Z,73.42
2022-09-17T17:03:46.786Z,72.44
2022-09-17T17:06:18.275Z,71.85
2022-09-17T17:08:46.049Z,72.04
2022-09-17T17:11:13.933Z,72.91
2022-09-17T17:13:43.518Z,71.71
2022-09-17T17:16:12.314Z,71.51
2022-09-17T17:18:40.306Z,72.63
2022-09-17T17:21:09.122Z,73.07
2022-09-17T17:23:36.901Z,73.84
2022-09-17T17:26:04.936Z,74.15
2022-09-17T17:28:36.052Z,74.63
2022-09-17T17:31:05.167Z,74.51
2022-09-17T17:33:33.089Z,74.29
2022-09-17T17:36:07.369Z,74.60
2022-09-17T17:38:35.529Z,73.44
2022-09-17T17:41:13.300Z,74.33
2022-09-17T17:43:41.304Z,73.78
2022-09-17T17:46:10.478Z,73.12
2022-09-17T17:48:38.465Z,74.19
2022-09-17T17:51:07.480Z,74.66
2022-09-17T17:53:35.403Z,73.65
2022-09-17T17:56:05.452Z,73.43
2022-09-17T17:58:33.387Z,73.50
2022-09-17T18:01:01.199Z,73.95
2022-09-17T18:03:28.926Z,74.02
2022-09-17T18:05:59.685Z,76.26
2022-09-17T18:08:27.335Z,75.10
2022-09-17T18:10:59.035Z,76.24
2022-09-17T18:13:26.852Z,74.92
2022-09-17T18:15:56.095Z,74.92
2022-09-17T18:18:24.407Z,75.49
2022-09-17T18:20:54.299Z,76.02
2022-09-17T18:23:22.156Z,76.97
2022-09-17T18:25:56.807Z,76.36
2022-09-17T18:28:24.636Z,75.53
2022-09-17T18:33:30.968Z,75.86
2022-09-17T18:36:02.315Z,74.33
2022-09-17T18:38:32.138Z,74.34
2022-09-17T18:43:35.619Z,75.23
2022-09-17T18:46:04.794Z,75.65
2022-09-17T18:48:36.310Z,76.59
2022-09-17T18:51:09.663Z,76.95
2022-09-17T18:53:38.123Z,77.00
2022-09-17T18:56:21.977Z,76.87
2022-09-17T18:58:51.088Z,78.65
2022-09-17T19:01:19.112Z,78.56
2022-09-17T19:03:46.828Z,78.26
2022-09-17T19:06:16.290Z,77.72
2022-09-17T19:08:44.156Z,79.04
2022-09-17T19:11:12.329Z,79.29
2022-09-17T19:13:41.628Z,78.18
2022-09-17T19:16:09.479Z,79.34
2022-09-17T19:18:38.285Z,80.74
2022-09-17T19:21:11.633Z,83.62
2022-09-17T19:23:43.331Z,84.18
2022-09-17T19:26:16.609Z,83.71
2022-09-17T19:28:44.605Z,84.32
2022-09-17T19:31:14.021Z,83.98
2022-09-17T19:33:41.806Z,82.92
2022-09-17T19:36:11.962Z,83.90
2022-09-17T19:38:39.865Z,83.49
2022-09-17T19:41:18.240Z,82.71
2022-09-17T19:43:49.022Z,82.92
2022-09-17T19:46:18.935Z,83.79
2022-09-17T19:48:47.924Z,83.29
2022-09-17T19:51:16.103Z,81.16
2022-09-17T19:53:43.856Z,82.46
2022-09-17T19:56:13.970Z,81.69
2022-09-17T19:58:41.920Z,80.61
2022-09-17T20:01:09.626Z,80.76
2022-09-17T20:03:39.326Z,80.70
2022-09-17T20:06:08.485Z,80.05
2022-09-17T20:08:43.516Z,80.39
2022-09-17T20:11:13.847Z,79.80
2022-09-17T20:13:41.612Z,79.02
2022-09-17T20:16:14.842Z,80.39
2022-09-17T20:18:42.962Z,81.26
2022-09-17T20:21:17.815Z,80.71
2022-09-17T20:23:45.544Z,80.67
2022-09-17T20:26:13.601Z,80.99
2022-09-17T20:28:41.355Z,81.33
2022-09-17T20:31:13.405Z,81.54
2022-09-17T20:33:41.442Z,81.19
2022-09-17T20:36:12.282Z,81.94
2022-09-17T20:41:28.825Z,81.66
2022-09-17T20:43:56.848Z,81.04
2022-09-17T20:46:28.906Z,81.55
2022-09-17T20:48:58.671Z,81.57
2022-09-17T20:51:30.623Z,82.14
2022-09-17T20:53:58.428Z,82.56
2022-09-17T20:56:28.074Z,83.15
2022-09-17T20:59:04.155Z,83.02
2022-09-17T21:01:33.846Z,83.58
2022-09-17T21:04:01.938Z,83.64
2022-09-17T21:06:31.289Z,84.83
2022-09-17T21:09:01.175Z,85.71
2022-09-17T21:11:29.710Z,85.34
2022-09-17T21:13:57.494Z,85.05
2022-09-17T21:16:25.964Z,85.41
2022-09-17T21:19:02.512Z,85.40
2022-09-17T21:21:30.532Z,85.60
2022-09-17T21:24:04.120Z,85.61
2022-09-17T21:26:31.829Z,85.76
2022-09-17T21:28:59.583Z,85.54
2022-09-17T21:31:33.229Z,85.33
2022-09-17T21:34:02.613Z,84.50
2022-09-17T21:36:31.860Z,84.56
2022-09-17T21:39:01.595Z,84.63
2022-09-17T21:41:29.545Z,83.78
2022-09-17T21:43:57.301Z,84.00
2022-09-17T21:46:26.553Z,84.12
2022-09-17T21:48:55.020Z,84.45
2022-09-17T21:51:23.853Z,84.68
2022-09-17T21:53:52.763Z,83.36
2022-09-17T21:56:20.827Z,83.19
2022-09-17T21:58:52.014Z,83.48
2022-09-17T22:01:24.431Z,83.92
2022-09-17T22:03:53.345Z,84.39
2022-09-17T22:06:22.732Z,84.61
2022-09-17T22:08:52.652Z,84.60
2022-09-17T22:11:22.147Z,84.57
2022-09-17T22:14:00.014Z,86.01
2022-09-17T22:16:28.949Z,85.13
2022-09-17T22:18:56.723Z,85.18
2022-09-17T22:21:25.625Z,86.59
2022-09-17T22:23:54.405Z,87.24
2022-09-17T22:26:23.415Z,86.62
2022-09-17T22:28:51.420Z,86.74
2022-09-17T22:31:19.505Z,86.54
2022-09-17T22:33:48.351Z,85.96
2022-09-17T22:36:21.062Z,86.30
2022-09-17T22:38:50.625Z,86.89
2022-09-17T22:41:23.516Z,87.01
2022-09-17T22:43:55.300Z,87.88
2022-09-17T22:46:24.733Z,88.32
2022-09-17T22:48:52.735Z,88.40
2022-09-17T22:51:20.479Z,88.53
2022-09-17T22:53:48.234Z,89.66
2022-09-17T22:56:17.039Z,89.19
2022-09-17T22:58:44.869Z,89.75
2022-09-17T23:01:17.688Z,89.80
2022-09-17T23:03:45.792Z,89.97
2022-09-17T23:06:15.503Z,89.75
2022-09-17T23:08:43.238Z,89.50
2022-09-17T23:11:17.180Z,89.90
2022-09-17T23:13:45.022Z,89.27
2022-09-17T23:16:12.877Z,89.46
2022-09-17T23:18:40.673Z,89.50
2022-09-17T23:21:11.090Z,88.97
2022-09-17T23:23:38.889Z,88.71
2022-09-17T23:26:08.089Z,88.49
2022-09-17T23:28:36.451Z,88.43
2022-09-17T23:31:29.208Z,88.07
2022-09-17T23:33:57.261Z,87.66
2022-09-17T23:36:36.421Z,87.57
2022-09-17T23:39:04.304Z,87.31
2022-09-17T23:41:38.929Z,87.62
2022-09-17T23:44:13.678Z,86.83
2022-09-17T23:46:43.025Z,86.97
2022-09-17T23:49:11.268Z,87.12
2022-09-17T23:51:39.102Z,86.19
2022-09-17T23:54:08.127Z,85.83
2022-09-17T23:56:36.038Z,85.44
2022-09-17T23:59:04.284Z,85.97
